SBJU/JDO METAR and TAF weather

Enter ICAO airport designator
Station Type Date Time Source
SBJU METAR 2019/06/16 04:00 UTC NOAA

SBJU 160400Z 00000KT 9999 FEW020 26/16 Q1020


Station Type Date Time Source
SBJU Decoded METAR 2019/06/16 04:00 UTC NOAA

Station name not available
Jun 16, 2019 - 12:00 AM EDT / 2019.06.16 0400 UTC
Wind: Calm:0
Visibility: greater than 7 mile(s):0
Sky conditions: mostly clear
Temperature: 78 F (26 C)
Dew Point: 60 F (16 C)
Relative Humidity: 54%
Pressure (altimeter): 30.12 in. Hg (1020 hPa)
ob: SBJU 160400Z 00000KT 9999 FEW020 26/16 Q1020
cycle: 4

Station Type Date Time Source
SBJU TAF 2011/11/01 00:05 UTC NOAA

TAF SBJU 012200Z 0200/0212 00000KT 9999 SCT020 TX28/0200Z TN24/0207Z
BECMG 0210/0212 06005KT
RMK PCE

Example: see airport list